createdAt,value
2022-09-05T00:00:14.604Z,20.60
2022-09-05T00:02:50.686Z,20.50
2022-09-05T00:06:01.742Z,20.40
2022-09-05T00:08:37.407Z,20.40
2022-09-05T00:11:43.230Z,20.40
2022-09-05T00:15:16.647Z,20.40
2022-09-05T00:20:18.189Z,20.40
2022-09-05T00:24:28.566Z,20.40
2022-09-05T00:24:42.077Z,20.70
2022-09-05T00:27:08.838Z,20.70
2022-09-05T00:31:05.654Z,20.60
2022-09-05T00:32:55.227Z,20.50
2022-09-05T00:35:42.214Z,20.30
2022-09-05T00:38:27.541Z,20.20
2022-09-05T00:41:14.201Z,20.30
2022-09-05T00:43:51.652Z,20.30
2022-09-05T00:46:35.480Z,20.30
2022-09-05T00:49:15.200Z,20.20
2022-09-05T00:52:29.536Z,20.30
2022-09-05T00:55:27.341Z,20.30
2022-09-05T00:58:27.634Z,20.20
2022-09-05T01:01:10.701Z,20.10
2022-09-05T01:04:28.548Z,20.10
2022-09-05T01:07:31.146Z,20.10
2022-09-05T01:10:33.461Z,20.10
2022-09-05T01:13:19.012Z,20.10
2022-09-05T01:16:20.224Z,20.10
2022-09-05T01:19:15.799Z,20.00
2022-09-05T01:21:57.836Z,20.00
2022-09-05T01:25:03.688Z,20.00
2022-09-05T01:28:46.165Z,20.00
2022-09-05T01:30:59.236Z,20.00
2022-09-05T01:33:38.436Z,20.00
2022-09-05T01:36:15.144Z,20.10
2022-09-05T01:40:11.634Z,20.10
2022-09-05T01:42:08.434Z,20.00
2022-09-05T01:45:40.169Z,20.10
2022-09-05T01:48:50.198Z,20.00
2022-09-05T01:52:04.808Z,20.00
2022-09-05T01:54:44.958Z,20.20
2022-09-05T01:57:36.251Z,20.10
2022-09-05T02:00:28.716Z,20.20
2022-09-05T02:03:31.544Z,20.30
2022-09-05T02:06:19.960Z,20.30
2022-09-05T02:09:11.004Z,20.30
2022-09-05T02:12:25.181Z,20.30
2022-09-05T02:15:29.364Z,20.20
2022-09-05T02:18:00.028Z,20.20
2022-09-05T02:20:45.312Z,20.30
2022-09-05T02:23:35.672Z,20.40
2022-09-05T02:27:00.825Z,20.30
2022-09-05T02:29:42.963Z,20.20
2022-09-05T02:32:40.525Z,20.10
2022-09-05T02:35:48.319Z,20.20
2022-09-05T02:45:00.139Z,20.30
2022-09-05T02:45:14.818Z,20.40
2022-09-05T02:45:21.363Z,20.30
2022-09-05T02:48:16.098Z,20.40
2022-09-05T02:57:23.172Z,20.40
2022-09-05T02:57:34.739Z,20.40
2022-09-05T02:58:05.288Z,20.40
2022-09-05T03:00:21.308Z,20.50
2022-09-05T03:03:28.859Z,20.40
2022-09-05T03:06:05.585Z,20.40
2022-09-05T03:08:38.777Z,20.30
2022-09-05T03:11:26.781Z,20.30
2022-09-05T03:14:32.338Z,20.30
2022-09-05T03:17:17.588Z,20.40
2022-09-05T03:20:25.396Z,20.40
2022-09-05T03:23:33.165Z,20.50
2022-09-05T03:26:44.461Z,20.40
2022-09-05T03:29:30.641Z,20.50
2022-09-05T03:32:26.022Z,20.40
2022-09-05T03:35:30.756Z,20.20
2022-09-05T03:38:39.464Z,20.20
2022-09-05T03:41:13.029Z,20.30
2022-09-05T03:43:59.426Z,20.30
2022-09-05T03:47:09.642Z,20.30
2022-09-05T03:53:30.983Z,20.30
2022-09-05T03:57:24.926Z,20.50
2022-09-05T03:57:27.456Z,20.40
2022-09-05T03:59:32.165Z,20.50
2022-09-05T04:04:33.803Z,20.50
2022-09-05T04:08:23.789Z,20.60
2022-09-05T04:08:42.613Z,20.50
2022-09-05T04:11:20.888Z,20.50
2022-09-05T04:13:55.074Z,20.60
2022-09-05T04:16:52.662Z,20.50
2022-09-05T04:19:40.923Z,20.50
2022-09-05T04:22:25.146Z,20.60
2022-09-05T04:25:19.907Z,20.50
2022-09-05T04:28:10.105Z,20.50
2022-09-05T04:31:19.861Z,20.50
2022-09-05T04:33:59.681Z,20.70
2022-09-05T04:36:58.568Z,20.60
2022-09-05T04:39:33.258Z,20.50
2022-09-05T04:44:43.288Z,20.40
2022-09-05T04:50:14.077Z,20.60
2022-09-05T04:52:54.884Z,20.50
2022-09-05T04:55:30.380Z,20.50
2022-09-05T04:58:00.872Z,20.30
2022-09-05T05:06:03.161Z,20.40
2022-09-05T05:06:18.909Z,20.60
2022-09-05T05:06:48.511Z,20.70
2022-09-05T05:09:26.691Z,20.70
2022-09-05T05:18:02.673Z,20.70
2022-09-05T05:18:08.956Z,20.50
2022-09-05T05:18:12.952Z,20.60
2022-09-05T05:20:51.197Z,20.50
2022-09-05T05:23:30.454Z,20.50
2022-09-05T05:26:02.872Z,20.40
2022-09-05T05:28:42.201Z,20.30
2022-09-05T05:31:24.273Z,20.30
2022-09-05T05:33:53.070Z,20.30
2022-09-05T05:37:06.133Z,20.40
2022-09-05T05:39:41.647Z,20.50
2022-09-05T05:42:21.506Z,20.40
2022-09-05T05:44:57.379Z,20.50
2022-09-05T05:47:43.539Z,20.50
2022-09-05T05:50:19.488Z,20.60
2022-09-05T05:53:33.646Z,20.60
2022-09-05T05:56:20.358Z,20.70
2022-09-05T05:59:22.631Z,20.80
2022-09-05T06:02:07.050Z,21.00
2022-09-05T06:05:04.361Z,21.10
2022-09-05T06:11:32.078Z,21.30
2022-09-05T06:14:50.316Z,21.50
2022-09-05T06:14:58.878Z,21.60
2022-09-05T06:18:01.938Z,21.80
2022-09-05T06:22:10.742Z,21.60
2022-09-05T06:24:21.231Z,21.50
2022-09-05T06:27:09.668Z,21.80
2022-09-05T06:30:01.101Z,22.10
2022-09-05T06:32:35.345Z,22.20
2022-09-05T06:35:26.548Z,22.70
2022-09-05T06:38:21.998Z,23.70
2022-09-05T06:41:13.234Z,24.50
2022-09-05T06:44:04.547Z,25.20
2022-09-05T06:46:50.626Z,25.80
2022-09-05T06:49:59.251Z,26.60
2022-09-05T06:53:23.940Z,27.70
2022-09-05T06:56:06.024Z,28.10
2022-09-05T06:59:10.118Z,28.00
2022-09-05T07:02:01.344Z,28.00
2022-09-05T07:05:24.689Z,27.80
2022-09-05T07:07:49.034Z,27.00
2022-09-05T07:10:40.697Z,26.60
2022-09-05T07:13:20.045Z,26.70
2022-09-05T07:16:35.640Z,27.50
2022-09-05T07:19:33.219Z,29.60
2022-09-05T07:22:18.510Z,32.60
2022-09-05T07:25:09.244Z,34.30
2022-09-05T07:28:28.532Z,34.60
2022-09-05T07:31:01.331Z,34.80
2022-09-05T07:33:31.118Z,36.00
2022-09-05T07:36:13.939Z,36.60
2022-09-05T07:38:50.293Z,36.50
2022-09-05T07:41:19.683Z,36.70
2022-09-05T07:43:49.079Z,37.00
2022-09-05T07:46:26.351Z,36.50
2022-09-05T07:49:05.060Z,37.40
2022-09-05T07:56:36.340Z,37.50
2022-09-05T07:56:59.651Z,37.80
2022-09-05T07:57:30.829Z,37.80
2022-09-05T08:00:25.564Z,38.00
2022-09-05T08:02:55.066Z,37.70
2022-09-05T08:05:31.054Z,37.70
2022-09-05T08:08:09.577Z,37.70
2022-09-05T08:11:23.314Z,37.70
2022-09-05T08:13:47.095Z,38.00
2022-09-05T08:16:17.414Z,38.70
2022-09-05T08:18:52.708Z,37.90
2022-09-05T08:21:27.547Z,37.50
2022-09-05T08:24:20.421Z,36.30
2022-09-05T08:27:16.405Z,36.70
2022-09-05T08:29:46.156Z,36.80
2022-09-05T08:32:38.825Z,36.70
2022-09-05T08:35:17.180Z,36.70
2022-09-05T08:37:45.267Z,36.80
2022-09-05T08:40:22.673Z,36.30
2022-09-05T08:46:18.589Z,35.80
2022-09-05T08:46:39.703Z,35.80
2022-09-05T08:49:48.840Z,36.50
2022-09-05T08:52:24.752Z,36.10
2022-09-05T08:55:07.424Z,36.70
2022-09-05T08:58:05.732Z,37.50
2022-09-05T09:00:55.623Z,37.10
2022-09-05T09:03:53.851Z,37.30
2022-09-05T09:06:23.725Z,38.00
2022-09-05T09:09:28.111Z,38.30
2022-09-05T09:12:06.116Z,37.80
2022-09-05T09:15:08.193Z,37.30
2022-09-05T09:17:51.612Z,37.80
2022-09-05T09:20:25.036Z,37.90
2022-09-05T09:23:32.657Z,37.90
2022-09-05T09:26:17.887Z,38.20
2022-09-05T09:28:55.533Z,38.70
2022-09-05T09:31:37.165Z,38.80
2022-09-05T09:34:26.115Z,39.10
2022-09-05T09:37:02.960Z,39.00
2022-09-05T09:39:51.742Z,39.20
2022-09-05T09:42:33.123Z,38.20
2022-09-05T09:45:28.512Z,36.50
2022-09-05T09:48:24.651Z,36.60
2022-09-05T09:51:26.957Z,36.00
2022-09-05T09:54:05.899Z,37.30
2022-09-05T09:56:52.343Z,36.90
2022-09-05T09:59:53.927Z,37.40
2022-09-05T10:04:15.870Z,37.90
2022-09-05T10:10:57.759Z,38.80
2022-09-05T10:10:58.388Z,38.10
2022-09-05T10:14:56.186Z,40.50
2022-09-05T10:17:47.913Z,42.20
2022-09-05T10:20:29.467Z,40.80
2022-09-05T10:23:17.927Z,39.80
2022-09-05T10:26:02.070Z,39.60
2022-09-05T10:29:36.804Z,40.60
2022-09-05T10:34:49.087Z,40.40
2022-09-05T10:35:27.494Z,38.70
2022-09-05T10:38:23.515Z,37.60
2022-09-05T10:41:20.521Z,36.10
2022-09-05T10:44:03.863Z,35.10
2022-09-05T10:46:56.124Z,34.60
2022-09-05T10:49:30.047Z,35.60
2022-09-05T10:52:18.498Z,36.90
2022-09-05T10:55:14.137Z,37.70
2022-09-05T10:57:57.437Z,39.40
2022-09-05T11:02:22.514Z,41.80
2022-09-05T11:04:04.349Z,43.90
2022-09-05T11:06:46.613Z,45.00
2022-09-05T11:09:26.057Z,44.90
2022-09-05T11:12:03.525Z,44.10
2022-09-05T11:14:53.921Z,42.20
2022-09-05T11:17:44.241Z,40.20
2022-09-05T11:20:52.789Z,39.50
2022-09-05T11:23:25.633Z,41.10
2022-09-05T11:26:14.885Z,43.50
2022-09-05T11:29:00.861Z,45.00
2022-09-05T11:34:29.988Z,45.50
2022-09-05T11:39:51.545Z,45.00
2022-09-05T11:40:02.214Z,45.00
2022-09-05T11:41:38.743Z,43.20
2022-09-05T11:44:24.735Z,41.00
2022-09-05T11:47:29.699Z,43.00
2022-09-05T11:50:01.948Z,42.50
2022-09-05T11:52:59.640Z,43.20
2022-09-05T11:56:04.128Z,43.50
2022-09-05T11:58:45.334Z,44.10
2022-09-05T12:01:54.279Z,43.20
2022-09-05T12:05:48.993Z,44.00
2022-09-05T12:08:20.769Z,44.70
2022-09-05T12:10:48.421Z,43.50
2022-09-05T12:13:29.320Z,43.10
2022-09-05T12:16:08.388Z,42.90
2022-09-05T12:19:02.855Z,42.30
2022-09-05T12:22:09.006Z,41.80
2022-09-05T12:25:27.322Z,39.00
2022-09-05T12:29:03.203Z,36.60
2022-09-05T12:32:36.563Z,35.90
2022-09-05T12:36:07.680Z,36.00
2022-09-05T12:40:52.913Z,36.90
2022-09-05T12:41:35.077Z,38.50
2022-09-05T12:44:39.118Z,40.60
2022-09-05T12:45:58.857Z,41.50
2022-09-05T12:48:54.562Z,40.30
2022-09-05T12:51:46.795Z,38.40
2022-09-05T12:54:33.490Z,38.30
2022-09-05T12:59:27.065Z,38.00
2022-09-05T13:03:01.345Z,38.40
2022-09-05T13:03:28.648Z,38.60
2022-09-05T13:06:25.127Z,39.20
2022-09-05T13:09:07.997Z,40.80
2022-09-05T13:15:02.405Z,41.90
2022-09-05T13:15:22.800Z,42.00
2022-09-05T13:18:15.320Z,43.60
2022-09-05T13:20:51.442Z,43.10
2022-09-05T13:23:24.233Z,41.90
2022-09-05T13:25:58.437Z,40.50
2022-09-05T13:28:34.550Z,39.90
2022-09-05T13:34:39.165Z,40.30
2022-09-05T13:37:58.255Z,41.20
2022-09-05T13:37:58.669Z,40.10
2022-09-05T13:39:48.578Z,40.30
2022-09-05T13:42:19.992Z,40.90
2022-09-05T13:44:51.482Z,40.10
2022-09-05T13:48:04.956Z,38.80
2022-09-05T13:50:40.312Z,37.90
2022-09-05T13:53:27.988Z,36.20
2022-09-05T13:56:24.116Z,35.50
2022-09-05T13:58:59.939Z,34.60
2022-09-05T14:02:26.322Z,34.80
2022-09-05T14:05:06.391Z,35.30
2022-09-05T14:07:54.102Z,35.80
2022-09-05T14:10:35.885Z,35.90
2022-09-05T14:13:19.786Z,36.00
2022-09-05T14:16:07.776Z,35.90
2022-09-05T14:19:06.535Z,35.10
2022-09-05T14:21:37.241Z,35.00
2022-09-05T14:24:16.960Z,34.90
2022-09-05T14:27:03.032Z,34.70
2022-09-05T14:29:41.010Z,33.90
2022-09-05T14:37:42.039Z,33.60
2022-09-05T14:37:45.732Z,33.60
2022-09-05T14:38:32.841Z,33.70
2022-09-05T14:41:15.581Z,34.10
2022-09-05T14:44:07.782Z,34.00
2022-09-05T14:46:49.830Z,33.10
2022-09-05T14:49:22.767Z,32.40
2022-09-05T14:51:53.004Z,32.00
2022-09-05T15:00:12.207Z,32.20
2022-09-05T15:01:53.380Z,32.00
2022-09-05T15:03:03.901Z,32.50
2022-09-05T15:05:40.787Z,32.70
2022-09-05T15:08:18.278Z,32.70
2022-09-05T15:12:20.314Z,32.60
2022-09-05T15:14:03.549Z,32.70
2022-09-05T15:16:35.502Z,32.90
2022-09-05T15:19:02.373Z,33.10
2022-09-05T15:21:41.287Z,33.10
2022-09-05T15:24:20.027Z,32.70
2022-09-05T15:26:57.309Z,32.10
2022-09-05T15:29:26.988Z,31.80
2022-09-05T15:32:13.652Z,31.40
2022-09-05T15:34:40.801Z,31.40
2022-09-05T15:37:31.913Z,31.40
2022-09-05T15:40:23.515Z,31.50
2022-09-05T15:43:01.975Z,31.20
2022-09-05T15:45:37.839Z,30.70
2022-09-05T15:48:26.547Z,29.50
2022-09-05T15:51:07.817Z,28.70
2022-09-05T15:53:37.479Z,28.30
2022-09-05T15:56:10.789Z,28.30
2022-09-05T15:58:53.065Z,28.00
2022-09-05T16:01:30.559Z,27.70
2022-09-05T16:07:12.189Z,27.40
2022-09-05T16:10:36.593Z,27.20
2022-09-05T16:10:38.136Z,27.00
2022-09-05T16:12:49.440Z,26.80
2022-09-05T16:19:01.561Z,26.80
2022-09-05T16:23:18.641Z,27.00
2022-09-05T16:23:28.691Z,27.10
2022-09-05T16:24:05.549Z,27.40
2022-09-05T16:26:49.550Z,27.40
2022-09-05T16:29:26.713Z,27.70
2022-09-05T16:32:02.190Z,27.80
2022-09-05T16:34:52.529Z,27.60
2022-09-05T16:37:34.446Z,27.70
2022-09-05T16:40:14.621Z,27.60
2022-09-05T16:43:00.022Z,27.80
2022-09-05T16:45:39.050Z,28.00
2022-09-05T16:48:28.549Z,28.10
2022-09-05T16:51:35.392Z,28.00
2022-09-05T16:54:11.785Z,27.80
2022-09-05T16:56:54.799Z,27.80
2022-09-05T16:59:24.405Z,27.70
2022-09-05T17:02:11.936Z,27.60
2022-09-05T17:05:07.376Z,27.50
2022-09-05T17:07:34.168Z,27.40
2022-09-05T17:10:16.624Z,27.20
2022-09-05T17:12:44.116Z,27.40
2022-09-05T17:15:14.726Z,27.60
2022-09-05T17:18:20.516Z,27.60
2022-09-05T17:20:53.949Z,27.70
2022-09-05T17:27:19.887Z,27.60
2022-09-05T17:29:33.613Z,27.60
2022-09-05T17:32:43.779Z,27.40
2022-09-05T17:35:30.921Z,27.20
2022-09-05T17:38:25.584Z,27.00
2022-09-05T17:41:15.189Z,27.00
2022-09-05T17:43:42.509Z,26.90
2022-09-05T17:46:26.081Z,26.80
2022-09-05T17:49:18.347Z,26.70
2022-09-05T17:51:53.008Z,26.70
2022-09-05T17:54:28.414Z,26.90
2022-09-05T17:56:55.336Z,27.00
2022-09-05T17:59:23.543Z,27.00
2022-09-05T18:02:03.051Z,27.10
2022-09-05T18:04:47.968Z,26.90
2022-09-05T18:07:26.843Z,26.80
2022-09-05T18:10:12.793Z,27.10
2022-09-05T18:15:38.342Z,27.10
2022-09-05T18:18:10.778Z,26.80
2022-09-05T18:21:21.428Z,26.10
2022-09-05T18:23:54.838Z,25.40
2022-09-05T18:26:25.067Z,23.10
2022-09-05T18:28:59.288Z,21.20
2022-09-05T18:31:41.646Z,20.60
2022-09-05T18:34:31.781Z,20.00
2022-09-05T18:36:58.900Z,19.60
2022-09-05T18:39:37.985Z,19.30
2022-09-05T18:42:33.280Z,19.30
2022-09-05T18:45:15.269Z,19.30
2022-09-05T18:47:51.225Z,19.30
2022-09-05T18:50:27.090Z,19.30
2022-09-05T18:53:09.349Z,19.30
2022-09-05T18:56:12.254Z,19.40
2022-09-05T18:59:09.442Z,19.40
2022-09-05T19:01:42.073Z,19.50
2022-09-05T19:04:40.335Z,19.60
2022-09-05T19:07:12.094Z,19.50
2022-09-05T19:09:56.776Z,19.50
2022-09-05T19:12:35.138Z,19.60
2022-09-05T19:15:25.991Z,19.70
2022-09-05T19:17:59.431Z,19.70
2022-09-05T19:21:11.857Z,19.70
2022-09-05T19:24:03.108Z,19.70
2022-09-05T19:26:33.656Z,19.90
2022-09-05T19:36:45.998Z,19.90
2022-09-05T19:37:05.313Z,20.10
2022-09-05T19:37:05.767Z,20.10
2022-09-05T19:37:48.728Z,20.20
2022-09-05T19:45:34.402Z,20.20
2022-09-05T19:47:31.255Z,20.30
2022-09-05T19:47:34.264Z,20.30
2022-09-05T19:49:11.035Z,20.40
2022-09-05T19:51:41.097Z,20.50
2022-09-05T19:54:22.022Z,20.60
2022-09-05T19:56:48.969Z,20.80
2022-09-05T19:59:24.464Z,21.10
2022-09-05T20:01:53.125Z,21.30
2022-09-05T20:04:21.472Z,21.10
2022-09-05T20:06:49.979Z,21.00
2022-09-05T20:09:24.458Z,20.70
2022-09-05T20:11:53.043Z,20.30
2022-09-05T20:14:31.301Z,20.00
2022-09-05T20:17:28.714Z,20.00
2022-09-05T20:20:18.532Z,20.00
2022-09-05T20:23:06.568Z,20.10
2022-09-05T20:25:39.852Z,19.90
2022-09-05T20:28:13.488Z,19.70
2022-09-05T20:31:08.346Z,19.50
2022-09-05T20:33:50.201Z,19.30
2022-09-05T20:43:15.326Z,19.30
2022-09-05T20:43:21.750Z,19.20
2022-09-05T20:43:32.825Z,19.10
2022-09-05T20:44:55.443Z,19.20
2022-09-05T20:50:44.392Z,19.20
2022-09-05T20:54:14.297Z,19.20
2022-09-05T20:54:28.945Z,19.20
2022-09-05T20:56:33.248Z,19.30
2022-09-05T20:59:00.920Z,19.20
2022-09-05T21:01:29.543Z,19.10
2022-09-05T21:03:59.337Z,19.10
2022-09-05T21:06:34.683Z,19.10
2022-09-05T21:09:25.202Z,19.00
2022-09-05T21:11:58.568Z,19.00
2022-09-05T21:14:28.890Z,19.10
2022-09-05T21:17:15.134Z,19.10
2022-09-05T21:19:43.809Z,19.10
2022-09-05T21:22:20.652Z,19.10
2022-09-05T21:25:06.655Z,19.20
2022-09-05T21:27:33.635Z,19.30
2022-09-05T21:30:27.123Z,19.50
2022-09-05T21:33:18.976Z,19.40
2022-09-05T21:35:54.409Z,19.40
2022-09-05T21:38:32.276Z,19.40
2022-09-05T21:41:04.229Z,19.30
2022-09-05T21:47:38.923Z,19.30
2022-09-05T21:47:49.425Z,19.10
2022-09-05T21:49:09.913Z,19.10
2022-09-05T21:51:38.666Z,19.10
2022-09-05T21:57:39.030Z,19.00
2022-09-05T21:59:29.240Z,18.90
2022-09-05T21:59:55.615Z,18.80
2022-09-05T22:02:25.711Z,18.90
2022-09-05T22:05:02.955Z,18.70
2022-09-05T22:07:34.503Z,18.60
2022-09-05T22:10:06.583Z,18.50
2022-09-05T22:12:35.777Z,18.40
2022-09-05T22:15:26.297Z,18.40
2022-09-05T22:18:16.106Z,18.30
2022-09-05T22:20:51.270Z,18.30
2022-09-05T22:23:37.018Z,18.20
2022-09-05T22:26:07.808Z,18.30
2022-09-05T22:28:38.339Z,18.10
2022-09-05T22:31:07.224Z,18.10
2022-09-05T22:33:35.907Z,18.00
2022-09-05T22:36:03.340Z,18.10
2022-09-05T22:38:30.359Z,18.10
2022-09-05T22:40:57.595Z,17.90
2022-09-05T22:43:25.067Z,17.90
2022-09-05T22:45:56.130Z,17.80
2022-09-05T22:48:23.954Z,17.80
2022-09-05T22:50:51.045Z,17.90
2022-09-05T22:53:17.913Z,17.90
2022-09-05T22:55:45.019Z,17.90
2022-09-05T22:58:14.081Z,17.90
2022-09-05T23:00:41.678Z,17.90
2022-09-05T23:03:08.525Z,17.90
2022-09-05T23:05:35.794Z,17.90
2022-09-05T23:08:04.529Z,18.00
2022-09-05T23:10:31.786Z,18.10
2022-09-05T23:12:59.245Z,18.10
2022-09-05T23:15:26.748Z,18.10
2022-09-05T23:17:55.466Z,18.10
2022-09-05T23:20:23.548Z,18.20
2022-09-05T23:22:50.956Z,18.20
2022-09-05T23:25:18.433Z,18.30
2022-09-05T23:27:45.828Z,18.30
2022-09-05T23:30:12.739Z,18.30
2022-09-05T23:32:47.784Z,18.40
2022-09-05T23:35:16.053Z,18.50
2022-09-05T23:37:47.586Z,18.50
2022-09-05T23:40:17.750Z,18.50
2022-09-05T23:42:52.750Z,18.50
2022-09-05T23:45:19.758Z,18.50
2022-09-05T23:47:47.190Z,18.50
2022-09-05T23:50:15.321Z,18.60
2022-09-05T23:52:43.871Z,18.60
2022-09-05T23:55:13.369Z,18.60
2022-09-05T23:57:41.328Z,18.60
